sensor_id;sensor_type;location;lat;lon;timestamp;P1;durP1;ratioP1;P2;durP2;ratioP2
46765;SDS011;32527;51.986;5.842;2023-02-15T00:01:09;58.15;;;26.85;;
46765;SDS011;32527;51.986;5.842;2023-02-15T00:03:36;55.35;;;26.23;;
46765;SDS011;32527;51.986;5.842;2023-02-15T00:06:02;52.97;;;26.15;;
46765;SDS011;32527;51.986;5.842;2023-02-15T00:08:29;53.88;;;26.00;;
46765;SDS011;32527;51.986;5.842;2023-02-15T00:11:12;59.35;;;28.08;;
46765;SDS011;32527;51.986;5.842;2023-02-15T00:13:39;61.38;;;27.85;;
46765;SDS011;32527;51.986;5.842;2023-02-15T00:16:12;54.70;;;26.63;;
46765;SDS011;32527;51.986;5.842;2023-02-15T00:18:38;57.40;;;27.45;;
46765;SDS011;32527;51.986;5.842;2023-02-15T00:21:08;65.38;;;28.70;;
46765;SDS011;32527;51.986;5.842;2023-02-15T00:23:35;60.88;;;27.95;;
46765;SDS011;32527;51.986;5.842;2023-02-15T00:26:08;57.17;;;28.27;;
46765;SDS011;32527;51.986;5.842;2023-02-15T00:28:35;58.65;;;28.38;;
46765;SDS011;32527;51.986;5.842;2023-02-15T00:31:02;60.45;;;29.02;;
46765;SDS011;32527;51.986;5.842;2023-02-15T00:33:29;65.97;;;28.92;;
46765;SDS011;32527;51.986;5.842;2023-02-15T00:35:58;55.80;;;26.67;;
46765;SDS011;32527;51.986;5.842;2023-02-15T00:38:25;49.95;;;26.15;;
46765;SDS011;32527;51.986;5.842;2023-02-15T00:40:55;52.78;;;26.38;;
46765;SDS011;32527;51.986;5.842;2023-02-15T00:43:22;56.15;;;26.20;;
46765;SDS011;32527;51.986;5.842;2023-02-15T00:45:48;59.28;;;27.65;;
46765;SDS011;32527;51.986;5.842;2023-02-15T00:48:14;63.85;;;28.02;;
46765;SDS011;32527;51.986;5.842;2023-02-15T00:50:40;60.80;;;27.23;;
46765;SDS011;32527;51.986;5.842;2023-02-15T00:53:07;57.50;;;25.55;;
46765;SDS011;32527;51.986;5.842;2023-02-15T00:55:33;60.28;;;27.80;;
46765;SDS011;32527;51.986;5.842;2023-02-15T00:57:59;60.85;;;27.42;;
46765;SDS011;32527;51.986;5.842;2023-02-15T01:00:25;59.08;;;28.23;;
46765;SDS011;32527;51.986;5.842;2023-02-15T01:02:51;60.35;;;26.80;;
46765;SDS011;32527;51.986;5.842;2023-02-15T01:05:17;57.97;;;27.98;;
46765;SDS011;32527;51.986;5.842;2023-02-15T01:07:43;59.30;;;26.33;;
46765;SDS011;32527;51.986;5.842;2023-02-15T01:10:09;53.10;;;25.75;;
46765;SDS011;32527;51.986;5.842;2023-02-15T01:12:34;51.70;;;26.70;;
46765;SDS011;32527;51.986;5.842;2023-02-15T01:15:00;55.53;;;26.42;;
46765;SDS011;32527;51.986;5.842;2023-02-15T01:17:26;62.63;;;25.90;;
46765;SDS011;32527;51.986;5.842;2023-02-15T01:19:53;56.95;;;28.75;;
46765;SDS011;32527;51.986;5.842;2023-02-15T01:22:19;64.05;;;27.67;;
46765;SDS011;32527;51.986;5.842;2023-02-15T01:24:45;65.07;;;28.88;;
46765;SDS011;32527;51.986;5.842;2023-02-15T01:27:10;64.45;;;26.80;;
46765;SDS011;32527;51.986;5.842;2023-02-15T01:29:36;62.08;;;27.13;;
46765;SDS011;32527;51.986;5.842;2023-02-15T01:32:02;58.85;;;28.67;;
46765;SDS011;32527;51.986;5.842;2023-02-15T01:34:29;58.35;;;27.60;;
46765;SDS011;32527;51.986;5.842;2023-02-15T01:36:56;64.47;;;27.02;;
46765;SDS011;32527;51.986;5.842;2023-02-15T01:39:22;61.17;;;26.52;;
46765;SDS011;32527;51.986;5.842;2023-02-15T01:41:49;57.22;;;26.95;;
46765;SDS011;32527;51.986;5.842;2023-02-15T01:50:14;51.67;;;23.75;;
46765;SDS011;32527;51.986;5.842;2023-02-15T01:53:14;52.28;;;25.65;;
46765;SDS011;32527;51.986;5.842;2023-02-15T01:55:47;58.92;;;26.83;;
46765;SDS011;32527;51.986;5.842;2023-02-15T01:58:23;60.28;;;28.35;;
46765;SDS011;32527;51.986;5.842;2023-02-15T02:00:50;60.70;;;27.02;;
46765;SDS011;32527;51.986;5.842;2023-02-15T02:03:16;54.67;;;24.85;;
46765;SDS011;32527;51.986;5.842;2023-02-15T02:05:45;63.13;;;26.90;;
46765;SDS011;32527;51.986;5.842;2023-02-15T02:08:11;53.13;;;25.95;;
46765;SDS011;32527;51.986;5.842;2023-02-15T02:10:37;63.67;;;27.38;;
46765;SDS011;32527;51.986;5.842;2023-02-15T02:13:04;54.90;;;26.02;;
46765;SDS011;32527;51.986;5.842;2023-02-15T02:15:39;56.25;;;26.55;;
46765;SDS011;32527;51.986;5.842;2023-02-15T02:18:29;51.47;;;23.20;;
46765;SDS011;32527;51.986;5.842;2023-02-15T02:21:09;53.33;;;24.50;;
46765;SDS011;32527;51.986;5.842;2023-02-15T02:32:16;58.65;;;25.20;;
46765;SDS011;32527;51.986;5.842;2023-02-15T02:35:00;50.28;;;23.35;;
46765;SDS011;32527;51.986;5.842;2023-02-15T02:37:48;51.10;;;23.50;;
46765;SDS011;32527;51.986;5.842;2023-02-15T02:42:54;49.92;;;25.13;;
46765;SDS011;32527;51.986;5.842;2023-02-15T02:45:28;55.00;;;25.83;;
46765;SDS011;32527;51.986;5.842;2023-02-15T02:48:05;53.35;;;24.75;;
46765;SDS011;32527;51.986;5.842;2023-02-15T02:50:35;54.53;;;24.83;;
46765;SDS011;32527;51.986;5.842;2023-02-15T02:53:05;51.17;;;25.15;;
46765;SDS011;32527;51.986;5.842;2023-02-15T02:55:35;51.65;;;24.77;;
46765;SDS011;32527;51.986;5.842;2023-02-15T02:58:18;56.22;;;25.48;;
46765;SDS011;32527;51.986;5.842;2023-02-15T03:00:54;55.00;;;25.35;;
46765;SDS011;32527;51.986;5.842;2023-02-15T03:03:44;56.67;;;26.92;;
46765;SDS011;32527;51.986;5.842;2023-02-15T03:06:30;60.55;;;26.92;;
46765;SDS011;32527;51.986;5.842;2023-02-15T03:09:12;58.92;;;26.60;;
46765;SDS011;32527;51.986;5.842;2023-02-15T03:11:43;56.38;;;27.45;;
46765;SDS011;32527;51.986;5.842;2023-02-15T03:14:10;52.00;;;25.55;;
46765;SDS011;32527;51.986;5.842;2023-02-15T03:16:39;56.67;;;26.08;;
46765;SDS011;32527;51.986;5.842;2023-02-15T03:19:12;54.35;;;26.40;;
46765;SDS011;32527;51.986;5.842;2023-02-15T03:24:39;55.65;;;25.85;;
46765;SDS011;32527;51.986;5.842;2023-02-15T03:27:31;60.00;;;26.42;;
46765;SDS011;32527;51.986;5.842;2023-02-15T03:30:01;53.63;;;26.92;;
46765;SDS011;32527;51.986;5.842;2023-02-15T03:32:29;63.28;;;26.65;;
46765;SDS011;32527;51.986;5.842;2023-02-15T03:34:57;61.90;;;27.77;;
46765;SDS011;32527;51.986;5.842;2023-02-15T03:37:33;56.97;;;25.20;;
46765;SDS011;32527;51.986;5.842;2023-02-15T03:43:53;56.25;;;24.85;;
46765;SDS011;32527;51.986;5.842;2023-02-15T03:46:42;59.40;;;27.38;;
46765;SDS011;32527;51.986;5.842;2023-02-15T03:48:57;51.25;;;25.17;;
46765;SDS011;32527;51.986;5.842;2023-02-15T03:51:43;55.42;;;26.33;;
46765;SDS011;32527;51.986;5.842;2023-02-15T03:54:14;50.45;;;25.13;;
46765;SDS011;32527;51.986;5.842;2023-02-15T03:57:04;58.42;;;26.92;;
46765;SDS011;32527;51.986;5.842;2023-02-15T03:59:51;55.17;;;25.73;;
46765;SDS011;32527;51.986;5.842;2023-02-15T04:02:40;57.92;;;25.65;;
46765;SDS011;32527;51.986;5.842;2023-02-15T04:05:17;56.35;;;26.30;;
46765;SDS011;32527;51.986;5.842;2023-02-15T04:07:43;53.08;;;24.23;;
46765;SDS011;32527;51.986;5.842;2023-02-15T04:10:08;58.47;;;27.10;;
46765;SDS011;32527;51.986;5.842;2023-02-15T04:12:53;61.17;;;26.70;;
46765;SDS011;32527;51.986;5.842;2023-02-15T04:15:18;53.35;;;26.92;;
46765;SDS011;32527;51.986;5.842;2023-02-15T04:18:03;57.35;;;25.45;;
46765;SDS011;32527;51.986;5.842;2023-02-15T04:20:29;54.85;;;25.42;;
46765;SDS011;32527;51.986;5.842;2023-02-15T04:23:13;57.60;;;24.15;;
46765;SDS011;32527;51.986;5.842;2023-02-15T04:28:23;53.40;;;23.63;;
46765;SDS011;32527;51.986;5.842;2023-02-15T04:30:48;61.95;;;25.15;;
46765;SDS011;32527;51.986;5.842;2023-02-15T04:33:14;57.70;;;26.45;;
46765;SDS011;32527;51.986;5.842;2023-02-15T04:35:42;53.10;;;24.73;;
46765;SDS011;32527;51.986;5.842;2023-02-15T04:38:10;54.25;;;23.60;;
46765;SDS011;32527;51.986;5.842;2023-02-15T04:40:36;53.17;;;24.73;;
46765;SDS011;32527;51.986;5.842;2023-02-15T04:43:02;54.10;;;24.85;;
46765;SDS011;32527;51.986;5.842;2023-02-15T04:45:28;57.53;;;25.58;;
46765;SDS011;32527;51.986;5.842;2023-02-15T04:47:53;54.30;;;26.08;;
46765;SDS011;32527;51.986;5.842;2023-02-15T04:50:19;60.97;;;24.42;;
46765;SDS011;32527;51.986;5.842;2023-02-15T04:52:46;49.08;;;23.63;;
46765;SDS011;32527;51.986;5.842;2023-02-15T04:55:12;67.13;;;22.30;;
46765;SDS011;32527;51.986;5.842;2023-02-15T04:57:37;50.53;;;23.25;;
46765;SDS011;32527;51.986;5.842;2023-02-15T05:00:04;55.30;;;24.55;;
46765;SDS011;32527;51.986;5.842;2023-02-15T05:02:30;49.08;;;25.02;;
46765;SDS011;32527;51.986;5.842;2023-02-15T05:04:56;52.40;;;23.50;;
46765;SDS011;32527;51.986;5.842;2023-02-15T05:07:22;55.13;;;24.33;;
46765;SDS011;32527;51.986;5.842;2023-02-15T05:09:48;54.20;;;23.52;;
46765;SDS011;32527;51.986;5.842;2023-02-15T05:12:14;53.03;;;23.60;;
46765;SDS011;32527;51.986;5.842;2023-02-15T05:14:40;60.08;;;25.10;;
46765;SDS011;32527;51.986;5.842;2023-02-15T05:17:06;61.63;;;26.88;;
46765;SDS011;32527;51.986;5.842;2023-02-15T05:19:32;56.38;;;26.20;;
46765;SDS011;32527;51.986;5.842;2023-02-15T05:21:58;58.47;;;28.33;;
46765;SDS011;32527;51.986;5.842;2023-02-15T05:24:24;56.20;;;27.90;;
46765;SDS011;32527;51.986;5.842;2023-02-15T05:27:12;54.47;;;24.50;;
46765;SDS011;32527;51.986;5.842;2023-02-15T05:29:56;53.13;;;26.55;;
46765;SDS011;32527;51.986;5.842;2023-02-15T05:32:22;51.83;;;23.92;;
46765;SDS011;32527;51.986;5.842;2023-02-15T05:34:48;58.53;;;26.40;;
46765;SDS011;32527;51.986;5.842;2023-02-15T05:37:14;49.78;;;24.35;;
46765;SDS011;32527;51.986;5.842;2023-02-15T05:39:40;47.33;;;23.73;;
46765;SDS011;32527;51.986;5.842;2023-02-15T05:42:06;54.28;;;23.67;;
46765;SDS011;32527;51.986;5.842;2023-02-15T05:44:32;47.33;;;23.05;;
46765;SDS011;32527;51.986;5.842;2023-02-15T05:46:58;58.38;;;23.50;;
46765;SDS011;32527;51.986;5.842;2023-02-15T05:49:24;53.08;;;25.25;;
46765;SDS011;32527;51.986;5.842;2023-02-15T05:51:50;51.60;;;23.85;;
46765;SDS011;32527;51.986;5.842;2023-02-15T05:54:16;60.97;;;25.73;;
46765;SDS011;32527;51.986;5.842;2023-02-15T05:56:42;50.72;;;24.42;;
46765;SDS011;32527;51.986;5.842;2023-02-15T05:59:08;55.20;;;24.95;;
46765;SDS011;32527;51.986;5.842;2023-02-15T06:01:35;54.05;;;25.20;;
46765;SDS011;32527;51.986;5.842;2023-02-15T06:04:00;52.50;;;24.33;;
46765;SDS011;32527;51.986;5.842;2023-02-15T06:06:26;57.58;;;24.55;;
46765;SDS011;32527;51.986;5.842;2023-02-15T06:08:52;54.95;;;23.70;;
46765;SDS011;32527;51.986;5.842;2023-02-15T06:11:18;53.08;;;25.92;;
46765;SDS011;32527;51.986;5.842;2023-02-15T06:13:44;52.13;;;25.85;;
46765;SDS011;32527;51.986;5.842;2023-02-15T06:16:10;55.13;;;23.88;;
46765;SDS011;32527;51.986;5.842;2023-02-15T06:18:36;55.53;;;25.48;;
46765;SDS011;32527;51.986;5.842;2023-02-15T06:21:03;51.50;;;24.48;;
46765;SDS011;32527;51.986;5.842;2023-02-15T06:23:29;60.03;;;24.88;;
46765;SDS011;32527;51.986;5.842;2023-02-15T06:25:55;51.30;;;23.30;;
46765;SDS011;32527;51.986;5.842;2023-02-15T06:28:20;49.50;;;24.27;;
46765;SDS011;32527;51.986;5.842;2023-02-15T06:30:46;50.75;;;23.95;;
46765;SDS011;32527;51.986;5.842;2023-02-15T06:33:12;49.30;;;23.40;;
46765;SDS011;32527;51.986;5.842;2023-02-15T06:35:38;56.97;;;24.67;;
46765;SDS011;32527;51.986;5.842;2023-02-15T06:38:04;53.05;;;24.23;;
46765;SDS011;32527;51.986;5.842;2023-02-15T06:40:30;51.65;;;25.13;;
46765;SDS011;32527;51.986;5.842;2023-02-15T06:42:56;53.65;;;23.35;;
46765;SDS011;32527;51.986;5.842;2023-02-15T06:45:22;57.40;;;25.13;;
46765;SDS011;32527;51.986;5.842;2023-02-15T06:47:48;53.53;;;24.35;;
46765;SDS011;32527;51.986;5.842;2023-02-15T06:50:14;49.85;;;23.85;;
46765;SDS011;32527;51.986;5.842;2023-02-15T06:52:39;56.65;;;24.27;;
46765;SDS011;32527;51.986;5.842;2023-02-15T06:55:05;54.35;;;25.05;;
46765;SDS011;32527;51.986;5.842;2023-02-15T06:57:31;56.47;;;25.85;;
46765;SDS011;32527;51.986;5.842;2023-02-15T06:59:58;58.42;;;23.95;;
46765;SDS011;32527;51.986;5.842;2023-02-15T07:02:24;64.03;;;25.17;;
46765;SDS011;32527;51.986;5.842;2023-02-15T07:04:50;56.63;;;26.13;;
46765;SDS011;32527;51.986;5.842;2023-02-15T07:07:16;54.22;;;25.98;;
46765;SDS011;32527;51.986;5.842;2023-02-15T07:09:42;51.17;;;24.67;;
46765;SDS011;32527;51.986;5.842;2023-02-15T07:12:08;59.45;;;25.80;;
46765;SDS011;32527;51.986;5.842;2023-02-15T07:14:53;54.80;;;24.45;;
46765;SDS011;32527;51.986;5.842;2023-02-15T07:17:19;54.88;;;25.10;;
46765;SDS011;32527;51.986;5.842;2023-02-15T07:19:45;57.65;;;26.73;;
46765;SDS011;32527;51.986;5.842;2023-02-15T07:22:11;61.67;;;26.77;;
46765;SDS011;32527;51.986;5.842;2023-02-15T07:24:37;68.15;;;27.58;;
46765;SDS011;32527;51.986;5.842;2023-02-15T07:27:03;63.75;;;25.77;;
46765;SDS011;32527;51.986;5.842;2023-02-15T07:29:29;60.15;;;27.00;;
46765;SDS011;32527;51.986;5.842;2023-02-15T07:31:55;62.13;;;28.38;;
46765;SDS011;32527;51.986;5.842;2023-02-15T07:34:20;65.72;;;29.30;;
46765;SDS011;32527;51.986;5.842;2023-02-15T07:36:46;67.22;;;28.05;;
46765;SDS011;32527;51.986;5.842;2023-02-15T07:39:12;59.55;;;27.27;;
46765;SDS011;32527;51.986;5.842;2023-02-15T07:41:39;58.88;;;26.30;;
46765;SDS011;32527;51.986;5.842;2023-02-15T07:44:13;53.10;;;25.80;;
46765;SDS011;32527;51.986;5.842;2023-02-15T07:46:39;54.20;;;26.73;;
46765;SDS011;32527;51.986;5.842;2023-02-15T07:49:06;58.67;;;28.35;;
46765;SDS011;32527;51.986;5.842;2023-02-15T07:51:32;66.78;;;28.92;;
46765;SDS011;32527;51.986;5.842;2023-02-15T07:53:58;58.05;;;26.15;;
46765;SDS011;32527;51.986;5.842;2023-02-15T07:56:24;59.58;;;26.85;;
46765;SDS011;32527;51.986;5.842;2023-02-15T07:58:56;56.58;;;26.40;;
46765;SDS011;32527;51.986;5.842;2023-02-15T08:06:05;56.22;;;25.77;;
46765;SDS011;32527;51.986;5.842;2023-02-15T08:10:07;59.20;;;26.75;;
46765;SDS011;32527;51.986;5.842;2023-02-15T08:13:11;62.75;;;27.58;;
46765;SDS011;32527;51.986;5.842;2023-02-15T08:16:18;58.07;;;26.53;;
46765;SDS011;32527;51.986;5.842;2023-02-15T08:19:52;57.13;;;27.02;;
46765;SDS011;32527;51.986;5.842;2023-02-15T08:23:05;59.00;;;26.65;;
46765;SDS011;32527;51.986;5.842;2023-02-15T08:29:28;62.45;;;27.90;;
46765;SDS011;32527;51.986;5.842;2023-02-15T08:31:56;60.10;;;28.38;;
46765;SDS011;32527;51.986;5.842;2023-02-15T08:34:27;54.70;;;26.95;;
46765;SDS011;32527;51.986;5.842;2023-02-15T08:36:55;58.05;;;25.92;;
46765;SDS011;32527;51.986;5.842;2023-02-15T08:39:21;55.92;;;28.05;;
46765;SDS011;32527;51.986;5.842;2023-02-15T08:41:47;65.07;;;27.95;;
46765;SDS011;32527;51.986;5.842;2023-02-15T08:44:14;57.22;;;27.73;;
46765;SDS011;32527;51.986;5.842;2023-02-15T08:46:42;61.13;;;26.45;;
46765;SDS011;32527;51.986;5.842;2023-02-15T08:49:09;60.13;;;27.73;;
46765;SDS011;32527;51.986;5.842;2023-02-15T08:51:38;55.28;;;27.73;;
46765;SDS011;32527;51.986;5.842;2023-02-15T08:54:06;57.10;;;28.17;;
46765;SDS011;32527;51.986;5.842;2023-02-15T08:56:39;62.42;;;27.40;;
46765;SDS011;32527;51.986;5.842;2023-02-15T08:59:06;52.72;;;25.73;;
46765;SDS011;32527;51.986;5.842;2023-02-15T09:01:36;55.25;;;25.42;;
46765;SDS011;32527;51.986;5.842;2023-02-15T09:04:03;52.53;;;26.13;;
46765;SDS011;32527;51.986;5.842;2023-02-15T09:06:31;59.70;;;29.70;;
46765;SDS011;32527;51.986;5.842;2023-02-15T09:08:57;57.75;;;25.67;;
46765;SDS011;32527;51.986;5.842;2023-02-15T09:11:24;55.58;;;27.08;;
46765;SDS011;32527;51.986;5.842;2023-02-15T09:13:58;58.95;;;27.02;;
46765;SDS011;32527;51.986;5.842;2023-02-15T09:16:27;49.47;;;24.75;;
46765;SDS011;32527;51.986;5.842;2023-02-15T09:18:55;49.50;;;24.85;;
46765;SDS011;32527;51.986;5.842;2023-02-15T09:21:22;52.00;;;25.15;;
46765;SDS011;32527;51.986;5.842;2023-02-15T09:23:50;50.38;;;25.75;;
46765;SDS011;32527;51.986;5.842;2023-02-15T09:26:19;53.03;;;26.40;;
46765;SDS011;32527;51.986;5.842;2023-02-15T09:28:47;47.80;;;24.45;;
46765;SDS011;32527;51.986;5.842;2023-02-15T09:31:17;49.38;;;24.80;;
46765;SDS011;32527;51.986;5.842;2023-02-15T09:33:45;46.03;;;24.30;;
46765;SDS011;32527;51.986;5.842;2023-02-15T09:36:33;47.00;;;23.52;;
46765;SDS011;32527;51.986;5.842;2023-02-15T09:39:01;50.00;;;23.80;;
46765;SDS011;32527;51.986;5.842;2023-02-15T09:55:41;45.10;;;23.98;;
46765;SDS011;32527;51.986;5.842;2023-02-15T10:03:37;44.22;;;23.15;;
46765;SDS011;32527;51.986;5.842;2023-02-15T10:06:25;43.58;;;21.55;;
46765;SDS011;32527;51.986;5.842;2023-02-15T10:11:33;51.20;;;24.20;;
46765;SDS011;32527;51.986;5.842;2023-02-15T10:31:47;47.00;;;23.10;;
46765;SDS011;32527;51.986;5.842;2023-02-15T10:34:19;43.30;;;21.17;;
46765;SDS011;32527;51.986;5.842;2023-02-15T10:37:10;40.60;;;21.20;;
46765;SDS011;32527;51.986;5.842;2023-02-15T10:45:34;47.67;;;23.00;;
46765;SDS011;32527;51.986;5.842;2023-02-15T10:51:08;46.88;;;20.77;;
46765;SDS011;32527;51.986;5.842;2023-02-15T11:07:46;43.13;;;20.67;;
46765;SDS011;32527;51.986;5.842;2023-02-15T11:21:09;40.63;;;19.40;;
46765;SDS011;32527;51.986;5.842;2023-02-15T11:24:13;38.67;;;22.13;;
46765;SDS011;32527;51.986;5.842;2023-02-15T11:26:50;38.50;;;20.55;;
46765;SDS011;32527;51.986;5.842;2023-02-15T11:29:40;42.47;;;20.00;;
46765;SDS011;32527;51.986;5.842;2023-02-15T11:32:21;40.47;;;22.00;;
46765;SDS011;32527;51.986;5.842;2023-02-15T11:40:36;46.50;;;21.58;;
46765;SDS011;32527;51.986;5.842;2023-02-15T11:43:12;38.90;;;21.52;;
46765;SDS011;32527;51.986;5.842;2023-02-15T11:45:42;36.88;;;20.77;;
46765;SDS011;32527;51.986;5.842;2023-02-15T11:48:11;42.15;;;21.42;;
46765;SDS011;32527;51.986;5.842;2023-02-15T11:50:39;39.63;;;21.80;;
46765;SDS011;32527;51.986;5.842;2023-02-15T11:53:18;44.83;;;20.88;;
46765;SDS011;32527;51.986;5.842;2023-02-15T11:55:55;44.85;;;21.30;;
46765;SDS011;32527;51.986;5.842;2023-02-15T11:58:29;39.22;;;22.10;;
46765;SDS011;32527;51.986;5.842;2023-02-15T12:03:55;38.63;;;19.92;;
46765;SDS011;32527;51.986;5.842;2023-02-15T12:06:26;39.63;;;21.48;;
46765;SDS011;32527;51.986;5.842;2023-02-15T12:11:37;37.28;;;22.10;;
46765;SDS011;32527;51.986;5.842;2023-02-15T12:14:06;38.80;;;21.27;;
46765;SDS011;32527;51.986;5.842;2023-02-15T12:16:41;36.67;;;20.35;;
46765;SDS011;32527;51.986;5.842;2023-02-15T12:22:02;38.95;;;20.52;;
46765;SDS011;32527;51.986;5.842;2023-02-15T12:24:32;37.63;;;21.25;;
46765;SDS011;32527;51.986;5.842;2023-02-15T12:27:22;41.33;;;20.77;;
46765;SDS011;32527;51.986;5.842;2023-02-15T12:29:58;45.03;;;21.50;;
46765;SDS011;32527;51.986;5.842;2023-02-15T12:32:30;40.33;;;22.38;;
46765;SDS011;32527;51.986;5.842;2023-02-15T12:35:12;40.30;;;21.73;;
46765;SDS011;32527;51.986;5.842;2023-02-15T12:40:59;48.10;;;22.83;;
46765;SDS011;32527;51.986;5.842;2023-02-15T12:43:34;42.85;;;22.45;;
46765;SDS011;32527;51.986;5.842;2023-02-15T12:51:13;37.53;;;21.27;;
46765;SDS011;32527;51.986;5.842;2023-02-15T12:53:40;46.03;;;22.92;;
46765;SDS011;32527;51.986;5.842;2023-02-15T12:56:07;42.25;;;23.35;;
46765;SDS011;32527;51.986;5.842;2023-02-15T12:58:36;43.65;;;23.15;;
46765;SDS011;32527;51.986;5.842;2023-02-15T13:03:29;42.42;;;22.48;;
46765;SDS011;32527;51.986;5.842;2023-02-15T13:05:56;42.53;;;22.63;;
46765;SDS011;32527;51.986;5.842;2023-02-15T13:11:13;46.22;;;23.85;;
46765;SDS011;32527;51.986;5.842;2023-02-15T13:13:54;44.17;;;22.33;;
46765;SDS011;32527;51.986;5.842;2023-02-15T13:16:37;42.75;;;22.60;;
46765;SDS011;32527;51.986;5.842;2023-02-15T13:21:49;41.65;;;24.40;;
46765;SDS011;32527;51.986;5.842;2023-02-15T13:24:33;40.13;;;22.00;;
46765;SDS011;32527;51.986;5.842;2023-02-15T13:27:03;48.35;;;23.17;;
46765;SDS011;32527;51.986;5.842;2023-02-15T13:29:34;42.80;;;23.05;;
46765;SDS011;32527;51.986;5.842;2023-02-15T13:32:44;47.95;;;25.45;;
46765;SDS011;32527;51.986;5.842;2023-02-15T13:34:58;44.13;;;22.95;;
46765;SDS011;32527;51.986;5.842;2023-02-15T13:51:46;44.42;;;24.02;;
46765;SDS011;32527;51.986;5.842;2023-02-15T13:57:17;44.95;;;22.42;;
46765;SDS011;32527;51.986;5.842;2023-02-15T14:08:34;43.03;;;22.25;;
46765;SDS011;32527;51.986;5.842;2023-02-15T14:17:23;45.33;;;23.57;;
46765;SDS011;32527;51.986;5.842;2023-02-15T14:19:54;43.33;;;23.75;;
46765;SDS011;32527;51.986;5.842;2023-02-15T14:22:35;47.65;;;24.25;;
46765;SDS011;32527;51.986;5.842;2023-02-15T14:30:42;45.78;;;24.00;;
46765;SDS011;32527;51.986;5.842;2023-02-15T14:35:41;53.58;;;24.60;;
46765;SDS011;32527;51.986;5.842;2023-02-15T14:41:07;51.08;;;23.95;;
46765;SDS011;32527;51.986;5.842;2023-02-15T14:49:12;54.33;;;24.75;;
46765;SDS011;32527;51.986;5.842;2023-02-15T14:54:10;44.28;;;23.67;;
46765;SDS011;32527;51.986;5.842;2023-02-15T15:02:21;45.45;;;24.20;;
46765;SDS011;32527;51.986;5.842;2023-02-15T15:07:41;41.53;;;22.73;;
46765;SDS011;32527;51.986;5.842;2023-02-15T15:12:45;50.30;;;25.17;;
46765;SDS011;32527;51.986;5.842;2023-02-15T15:17:56;47.13;;;23.85;;
46765;SDS011;32527;51.986;5.842;2023-02-15T15:22:50;44.72;;;21.73;;
46765;SDS011;32527;51.986;5.842;2023-02-15T15:25:41;45.83;;;24.15;;
46765;SDS011;32527;51.986;5.842;2023-02-15T15:31:04;45.25;;;25.60;;
46765;SDS011;32527;51.986;5.842;2023-02-15T15:45:35;48.40;;;26.65;;
46765;SDS011;32527;51.986;5.842;2023-02-15T15:48:28;43.60;;;22.77;;
46765;SDS011;32527;51.986;5.842;2023-02-15T15:53:40;45.88;;;23.95;;
46765;SDS011;32527;51.986;5.842;2023-02-15T15:56:11;44.17;;;23.23;;
46765;SDS011;32527;51.986;5.842;2023-02-15T15:58:44;48.88;;;24.48;;
46765;SDS011;32527;51.986;5.842;2023-02-15T16:01:16;48.30;;;22.73;;
46765;SDS011;32527;51.986;5.842;2023-02-15T16:03:52;41.22;;;21.33;;
46765;SDS011;32527;51.986;5.842;2023-02-15T16:06:30;45.95;;;24.55;;
46765;SDS011;32527;51.986;5.842;2023-02-15T16:08:55;43.10;;;25.13;;
46765;SDS011;32527;51.986;5.842;2023-02-15T16:11:22;47.67;;;26.00;;
46765;SDS011;32527;51.986;5.842;2023-02-15T16:13:50;47.72;;;25.05;;
46765;SDS011;32527;51.986;5.842;2023-02-15T16:16:21;48.85;;;25.35;;
46765;SDS011;32527;51.986;5.842;2023-02-15T16:18:49;49.00;;;25.15;;
46765;SDS011;32527;51.986;5.842;2023-02-15T16:21:17;43.28;;;23.17;;
46765;SDS011;32527;51.986;5.842;2023-02-15T16:23:59;52.38;;;25.38;;
46765;SDS011;32527;51.986;5.842;2023-02-15T16:27:03;52.88;;;27.35;;
46765;SDS011;32527;51.986;5.842;2023-02-15T16:29:40;53.53;;;29.70;;
46765;SDS011;32527;51.986;5.842;2023-02-15T16:32:15;53.67;;;26.70;;
46765;SDS011;32527;51.986;5.842;2023-02-15T16:35:01;52.33;;;26.55;;
46765;SDS011;32527;51.986;5.842;2023-02-15T16:37:31;47.17;;;24.67;;
46765;SDS011;32527;51.986;5.842;2023-02-15T16:39:58;53.97;;;26.75;;
46765;SDS011;32527;51.986;5.842;2023-02-15T16:42:24;54.70;;;25.77;;
46765;SDS011;32527;51.986;5.842;2023-02-15T16:44:55;46.25;;;25.52;;
46765;SDS011;32527;51.986;5.842;2023-02-15T16:47:25;45.50;;;24.33;;
46765;SDS011;32527;51.986;5.842;2023-02-15T16:49:55;51.90;;;25.47;;
46765;SDS011;32527;51.986;5.842;2023-02-15T16:52:24;52.92;;;27.60;;
46765;SDS011;32527;51.986;5.842;2023-02-15T16:54:56;51.38;;;26.00;;
46765;SDS011;32527;51.986;5.842;2023-02-15T16:57:26;50.42;;;24.65;;
46765;SDS011;32527;51.986;5.842;2023-02-15T17:00:00;49.10;;;25.08;;
46765;SDS011;32527;51.986;5.842;2023-02-15T17:02:31;51.65;;;26.13;;
46765;SDS011;32527;51.986;5.842;2023-02-15T17:07:33;46.50;;;26.85;;
46765;SDS011;32527;51.986;5.842;2023-02-15T17:10:16;51.88;;;25.50;;
46765;SDS011;32527;51.986;5.842;2023-02-15T17:12:54;62.60;;;26.42;;
46765;SDS011;32527;51.986;5.842;2023-02-15T17:15:29;53.75;;;25.65;;
46765;SDS011;32527;51.986;5.842;2023-02-15T17:18:04;52.03;;;24.80;;
46765;SDS011;32527;51.986;5.842;2023-02-15T17:20:31;57.95;;;26.00;;
46765;SDS011;32527;51.986;5.842;2023-02-15T17:22:58;52.30;;;23.90;;
46765;SDS011;32527;51.986;5.842;2023-02-15T17:25:26;54.58;;;26.45;;
46765;SDS011;32527;51.986;5.842;2023-02-15T17:28:00;58.35;;;28.20;;
46765;SDS011;32527;51.986;5.842;2023-02-15T17:30:28;48.90;;;25.75;;
46765;SDS011;32527;51.986;5.842;2023-02-15T17:32:57;53.75;;;25.13;;
46765;SDS011;32527;51.986;5.842;2023-02-15T17:35:26;51.22;;;25.13;;
46765;SDS011;32527;51.986;5.842;2023-02-15T17:38:39;52.03;;;25.67;;
46765;SDS011;32527;51.986;5.842;2023-02-15T17:40:45;54.42;;;26.60;;
46765;SDS011;32527;51.986;5.842;2023-02-15T17:43:11;53.35;;;25.90;;
46765;SDS011;32527;51.986;5.842;2023-02-15T17:45:43;48.17;;;26.88;;
46765;SDS011;32527;51.986;5.842;2023-02-15T17:50:47;52.88;;;25.65;;
46765;SDS011;32527;51.986;5.842;2023-02-15T17:53:15;58.28;;;25.80;;
46765;SDS011;32527;51.986;5.842;2023-02-15T17:55:42;57.67;;;27.30;;
46765;SDS011;32527;51.986;5.842;2023-02-15T17:58:12;59.05;;;25.92;;
46765;SDS011;32527;51.986;5.842;2023-02-15T18:00:43;52.22;;;26.08;;
46765;SDS011;32527;51.986;5.842;2023-02-15T18:03:33;55.17;;;26.73;;
46765;SDS011;32527;51.986;5.842;2023-02-15T18:06:24;51.33;;;25.88;;
46765;SDS011;32527;51.986;5.842;2023-02-15T18:09:15;54.08;;;27.08;;
46765;SDS011;32527;51.986;5.842;2023-02-15T18:12:01;58.67;;;28.98;;
46765;SDS011;32527;51.986;5.842;2023-02-15T18:14:31;58.28;;;29.15;;
46765;SDS011;32527;51.986;5.842;2023-02-15T18:16:56;53.70;;;25.40;;
46765;SDS011;32527;51.986;5.842;2023-02-15T18:19:25;54.83;;;27.25;;
46765;SDS011;32527;51.986;5.842;2023-02-15T18:21:51;52.25;;;26.52;;
46765;SDS011;32527;51.986;5.842;2023-02-15T18:24:20;56.40;;;26.65;;
46765;SDS011;32527;51.986;5.842;2023-02-15T18:26:48;57.05;;;25.55;;
46765;SDS011;32527;51.986;5.842;2023-02-15T18:29:15;52.35;;;26.90;;
46765;SDS011;32527;51.986;5.842;2023-02-15T18:31:40;54.30;;;26.15;;
46765;SDS011;32527;51.986;5.842;2023-02-15T18:34:12;55.75;;;25.83;;
46765;SDS011;32527;51.986;5.842;2023-02-15T18:36:52;57.42;;;27.25;;